createdAt,value
2023-02-28T00:00:54.719Z,64.06
2023-02-28T00:02:57.993Z,63.96
2023-02-28T00:04:59.803Z,64.18
2023-02-28T00:07:01.594Z,64.51
2023-02-28T00:09:03.949Z,65.20
2023-02-28T00:11:07.571Z,64.88
2023-02-28T00:13:09.187Z,64.51
2023-02-28T00:15:12.019Z,64.82
2023-02-28T00:17:13.858Z,64.83
2023-02-28T00:19:16.870Z,64.38
2023-02-28T00:21:20.012Z,64.60
2023-02-28T00:23:21.676Z,64.55
2023-02-28T00:25:24.913Z,64.43
2023-02-28T00:27:26.538Z,64.80
2023-02-28T00:29:28.105Z,64.23
2023-02-28T00:31:30.204Z,64.79
2023-02-28T00:33:32.046Z,64.72
2023-02-28T00:35:35.093Z,65.36
2023-02-28T00:37:37.088Z,65.09
2023-02-28T00:39:39.956Z,65.39
2023-02-28T00:41:41.628Z,65.04
2023-02-28T00:43:43.422Z,65.16
2023-02-28T00:45:45.356Z,65.20
2023-02-28T00:47:47.213Z,65.31
2023-02-28T00:49:49.133Z,64.90
2023-02-28T00:51:52.623Z,64.92
2023-02-28T00:53:54.236Z,65.58
2023-02-28T00:55:56.076Z,65.28
2023-02-28T00:57:57.863Z,65.40
2023-02-28T00:59:59.484Z,65.65
2023-02-28T01:02:01.147Z,65.36
2023-02-28T01:04:02.741Z,65.32
2023-02-28T01:06:05.060Z,65.83
2023-02-28T01:08:08.570Z,65.58
2023-02-28T01:10:12.551Z,65.52
2023-02-28T01:12:14.122Z,65.20
2023-02-28T01:14:17.907Z,64.83
2023-02-28T01:16:19.484Z,65.54
2023-02-28T01:18:23.253Z,65.34
2023-02-28T01:20:25.303Z,65.59
2023-02-28T01:22:26.942Z,65.17
2023-02-28T01:24:30.004Z,64.99
2023-02-28T01:26:31.945Z,64.53
2023-02-28T01:28:34.015Z,64.87
2023-02-28T01:30:35.969Z,64.65
2023-02-28T01:32:37.986Z,65.15
2023-02-28T01:34:39.649Z,65.38
2023-02-28T01:36:41.537Z,65.61
2023-02-28T01:38:45.732Z,65.87
2023-02-28T01:40:49.350Z,65.65
2023-02-28T01:42:51.075Z,66.25
2023-02-28T01:45:00.067Z,65.76
2023-02-28T01:47:01.618Z,66.18
2023-02-28T01:49:09.243Z,65.69
2023-02-28T01:51:16.118Z,66.10
2023-02-28T01:53:23.322Z,66.17
2023-02-28T01:55:26.962Z,66.03
2023-02-28T01:57:35.354Z,65.16
2023-02-28T01:59:42.246Z,65.16
2023-02-28T02:01:44.022Z,65.77
2023-02-28T02:03:45.959Z,65.68
2023-02-28T02:05:48.042Z,65.26
2023-02-28T02:07:53.372Z,65.70
2023-02-28T02:10:02.428Z,64.62
2023-02-28T02:12:16.986Z,65.17
2023-02-28T02:14:44.919Z,64.27
2023-02-28T02:17:01.304Z,64.75
2023-02-28T02:19:17.002Z,64.93
2023-02-28T02:21:45.704Z,64.74
2023-02-28T02:24:04.639Z,64.63
2023-02-28T02:26:29.656Z,64.57
2023-02-28T02:28:59.204Z,64.58
2023-02-28T02:31:28.957Z,65.16
2023-02-28T02:34:00.795Z,64.95
2023-02-28T02:36:07.957Z,65.39
2023-02-28T02:38:18.504Z,65.20
2023-02-28T02:40:23.357Z,65.81
2023-02-28T02:42:29.931Z,65.85
2023-02-28T02:44:38.366Z,66.08
2023-02-28T02:46:44.220Z,66.12
2023-02-28T02:48:48.063Z,66.21
2023-02-28T02:50:55.304Z,65.84
2023-02-28T02:53:01.013Z,66.00
2023-02-28T02:55:04.824Z,65.92
2023-02-28T02:57:09.355Z,65.42
2023-02-28T02:59:14.658Z,65.42
2023-02-28T03:01:22.584Z,65.47
2023-02-28T03:03:24.947Z,65.92
2023-02-28T03:05:30.001Z,66.01
2023-02-28T03:07:33.110Z,66.12
2023-02-28T03:09:35.835Z,66.31
2023-02-28T03:11:38.788Z,65.39
2023-02-28T03:14:07.533Z,64.49
2023-02-28T03:16:24.642Z,64.65
2023-02-28T03:18:33.028Z,65.42
2023-02-28T03:20:46.333Z,64.69
2023-02-28T03:23:02.504Z,64.97
2023-02-28T03:25:10.139Z,65.00
2023-02-28T03:27:18.236Z,65.26
2023-02-28T03:29:29.470Z,65.10
2023-02-28T03:31:37.544Z,65.55
2023-02-28T03:33:45.875Z,65.83
2023-02-28T03:35:53.495Z,65.30
2023-02-28T03:38:09.710Z,65.20
2023-02-28T03:40:15.321Z,65.71
2023-02-28T03:42:21.292Z,65.82
2023-02-28T03:44:29.137Z,65.77
2023-02-28T03:46:37.326Z,65.63
2023-02-28T03:48:45.095Z,65.89
2023-02-28T03:50:50.464Z,65.76
2023-02-28T03:52:59.700Z,65.63
2023-02-28T03:55:05.015Z,65.16
2023-02-28T03:57:14.951Z,65.37
2023-02-28T03:59:24.608Z,65.31
2023-02-28T04:01:32.409Z,65.85
2023-02-28T04:03:34.615Z,65.62
2023-02-28T04:05:49.604Z,64.86
2023-02-28T04:07:51.747Z,65.78
2023-02-28T04:09:54.724Z,66.30
2023-02-28T04:11:56.381Z,65.69
2023-02-28T04:13:58.035Z,65.84
2023-02-28T04:16:00.058Z,66.40
2023-02-28T04:18:01.710Z,66.09
2023-02-28T04:20:03.528Z,66.47
2023-02-28T04:22:05.070Z,66.01
2023-02-28T04:24:07.097Z,66.28
2023-02-28T04:26:10.087Z,65.73
2023-02-28T04:28:11.703Z,65.68
2023-02-28T04:30:13.781Z,66.59
2023-02-28T04:32:15.726Z,66.86
2023-02-28T04:34:17.663Z,66.40
2023-02-28T04:36:19.720Z,66.57
2023-02-28T04:38:21.377Z,65.96
2023-02-28T04:40:22.979Z,66.09
2023-02-28T04:42:25.998Z,66.55
2023-02-28T04:44:27.857Z,66.52
2023-02-28T04:46:29.496Z,66.71
2023-02-28T04:48:33.163Z,66.32
2023-02-28T04:50:34.817Z,66.17
2023-02-28T04:52:36.394Z,66.07
2023-02-28T04:54:38.179Z,65.88
2023-02-28T04:56:40.448Z,65.98
2023-02-28T04:58:43.501Z,66.48
2023-02-28T05:00:45.144Z,66.41
2023-02-28T05:02:46.782Z,66.70
2023-02-28T05:04:48.603Z,66.34
2023-02-28T05:06:50.179Z,66.69
2023-02-28T05:08:51.960Z,65.84
2023-02-28T05:10:53.575Z,65.99
2023-02-28T05:12:55.881Z,66.37
2023-02-28T05:14:58.977Z,66.47
2023-02-28T05:17:00.816Z,66.41
2023-02-28T05:19:02.721Z,66.36
2023-02-28T05:21:04.535Z,67.10
2023-02-28T05:23:06.387Z,66.24
2023-02-28T05:25:11.715Z,66.81
2023-02-28T05:27:13.524Z,66.70
2023-02-28T05:29:15.123Z,66.40
2023-02-28T05:31:18.374Z,66.30
2023-02-28T05:33:20.040Z,66.49
2023-02-28T05:35:21.637Z,66.68
2023-02-28T05:37:23.432Z,66.45
2023-02-28T05:39:25.022Z,66.46
2023-02-28T05:41:26.593Z,66.23
2023-02-28T05:43:28.161Z,65.83
2023-02-28T05:45:30.050Z,66.05
2023-02-28T05:47:33.115Z,66.17
2023-02-28T05:49:34.649Z,66.19
2023-02-28T05:51:36.444Z,66.22
2023-02-28T05:53:38.350Z,66.25
2023-02-28T05:55:39.990Z,66.69
2023-02-28T05:57:41.543Z,66.75
2023-02-28T05:59:43.083Z,66.82
2023-02-28T06:01:46.360Z,67.19
2023-02-28T06:03:49.786Z,66.92
2023-02-28T06:05:51.320Z,66.95
2023-02-28T06:07:52.850Z,66.93
2023-02-28T06:09:54.477Z,66.94
2023-02-28T06:11:58.256Z,66.99
2023-02-28T06:14:01.508Z,67.10
2023-02-28T06:16:03.108Z,67.44
2023-02-28T06:18:04.817Z,67.92
2023-02-28T06:20:10.256Z,67.55
2023-02-28T06:22:12.163Z,67.50
2023-02-28T06:24:13.988Z,67.69
2023-02-28T06:26:15.605Z,67.77
2023-02-28T06:28:17.329Z,67.84
2023-02-28T06:30:19.265Z,68.05
2023-02-28T06:32:21.158Z,68.66
2023-02-28T06:34:23.228Z,68.31
2023-02-28T06:36:26.159Z,68.25
2023-02-28T06:38:28.161Z,68.75
2023-02-28T06:40:29.713Z,68.25
2023-02-28T06:42:31.248Z,68.14
2023-02-28T06:44:32.814Z,68.05
2023-02-28T06:46:34.416Z,68.10
2023-02-28T06:48:36.445Z,68.15
2023-02-28T06:50:38.232Z,68.67
2023-02-28T06:52:41.245Z,68.29
2023-02-28T06:54:42.830Z,68.63
2023-02-28T06:56:44.370Z,67.76
2023-02-28T06:58:48.110Z,68.12
2023-02-28T07:00:52.277Z,67.86
2023-02-28T07:02:53.846Z,68.05
2023-02-28T07:04:55.765Z,67.94
2023-02-28T07:06:57.428Z,67.53
2023-02-28T07:09:00.740Z,67.99
2023-02-28T07:11:05.682Z,68.07
2023-02-28T07:13:08.552Z,68.24
2023-02-28T07:15:11.857Z,68.56
2023-02-28T07:17:13.506Z,68.12
2023-02-28T07:19:15.132Z,68.17
2023-02-28T07:21:17.336Z,68.63
2023-02-28T07:23:19.958Z,68.09
2023-02-28T07:25:23.339Z,67.87
2023-02-28T07:27:28.092Z,67.96
2023-02-28T07:29:29.932Z,68.46
2023-02-28T07:31:31.961Z,67.79
2023-02-28T07:33:34.832Z,68.45
2023-02-28T07:35:36.469Z,68.16
2023-02-28T07:37:38.184Z,67.97
2023-02-28T07:39:40.026Z,68.29
2023-02-28T07:41:43.310Z,67.79
2023-02-28T07:43:45.006Z,68.60
2023-02-28T07:45:46.624Z,67.93
2023-02-28T07:47:48.473Z,68.15
2023-02-28T07:49:49.972Z,68.69
2023-02-28T07:51:51.499Z,68.38
2023-02-28T07:53:53.381Z,68.32
2023-02-28T07:55:57.097Z,67.90
2023-02-28T07:58:00.375Z,67.35
2023-02-28T08:00:02.187Z,67.03
2023-02-28T08:02:04.036Z,66.84
2023-02-28T08:04:05.613Z,66.71
2023-02-28T08:06:09.858Z,66.03
2023-02-28T08:08:11.455Z,66.07
2023-02-28T08:10:13.137Z,66.30
2023-02-28T08:12:14.773Z,65.84
2023-02-28T08:14:17.728Z,64.96
2023-02-28T08:16:19.556Z,65.65
2023-02-28T08:18:21.465Z,64.47
2023-02-28T08:20:23.418Z,63.70
2023-02-28T08:22:25.563Z,64.30
2023-02-28T08:24:27.433Z,64.56
2023-02-28T08:26:29.586Z,63.82
2023-02-28T08:28:31.601Z,63.67
2023-02-28T08:30:34.690Z,62.80
2023-02-28T08:32:36.584Z,62.42
2023-02-28T08:34:40.284Z,61.80
2023-02-28T08:36:42.439Z,62.68
2023-02-28T08:38:44.517Z,63.04
2023-02-28T08:40:46.359Z,62.70
2023-02-28T08:42:48.888Z,62.06
2023-02-28T08:44:50.669Z,60.92
2023-02-28T08:46:54.793Z,59.68
2023-02-28T08:48:57.731Z,58.50
2023-02-28T08:51:07.252Z,58.64
2023-02-28T08:53:09.717Z,57.44
2023-02-28T08:55:11.374Z,57.71
2023-02-28T08:57:13.004Z,57.08
2023-02-28T08:59:14.657Z,56.75
2023-02-28T09:01:18.235Z,56.65
2023-02-28T09:03:22.640Z,55.90
2023-02-28T09:05:25.521Z,55.51
2023-02-28T09:07:26.995Z,55.92
2023-02-28T09:09:29.036Z,55.15
2023-02-28T09:11:31.015Z,55.58
2023-02-28T09:13:33.374Z,54.94
2023-02-28T09:15:35.181Z,55.01
2023-02-28T09:17:36.826Z,55.25
2023-02-28T09:19:39.825Z,54.67
2023-02-28T09:21:41.634Z,53.10
2023-02-28T09:23:44.378Z,53.16
2023-02-28T09:25:47.619Z,54.43
2023-02-28T09:27:49.546Z,54.00
2023-02-28T09:29:51.584Z,53.14
2023-02-28T09:31:55.637Z,52.25
2023-02-28T09:33:59.029Z,51.51
2023-02-28T09:36:04.801Z,52.57
2023-02-28T09:38:06.817Z,51.17
2023-02-28T09:40:11.166Z,50.04
2023-02-28T09:42:22.482Z,52.62
2023-02-28T09:44:31.237Z,51.19
2023-02-28T09:46:37.856Z,49.62
2023-02-28T09:48:45.459Z,49.61
2023-02-28T09:50:51.075Z,49.06
2023-02-28T09:52:56.257Z,49.38
2023-02-28T09:55:21.322Z,51.25
2023-02-28T09:57:37.892Z,49.95
2023-02-28T09:59:49.831Z,48.74
2023-02-28T10:01:59.376Z,48.59
2023-02-28T10:04:09.776Z,49.26
2023-02-28T10:06:18.414Z,48.88
2023-02-28T10:08:26.137Z,49.54
2023-02-28T10:10:34.264Z,48.38
2023-02-28T10:12:42.031Z,48.27
2023-02-28T10:14:48.611Z,47.64
2023-02-28T10:16:53.327Z,45.76
2023-02-28T10:18:58.554Z,45.75
2023-02-28T10:21:00.326Z,45.75
2023-02-28T10:23:10.064Z,47.40
2023-02-28T10:25:20.615Z,47.78
2023-02-28T10:27:24.204Z,45.32
2023-02-28T10:29:25.898Z,44.08
2023-02-28T10:31:27.736Z,42.86
2023-02-28T10:33:32.798Z,43.41
2023-02-28T10:35:34.660Z,43.67
2023-02-28T10:37:38.752Z,44.58
2023-02-28T10:39:43.051Z,42.63
2023-02-28T10:41:46.619Z,41.74
2023-02-28T10:43:48.293Z,41.71
2023-02-28T10:45:57.812Z,44.49
2023-02-28T10:48:01.914Z,42.11
2023-02-28T10:50:04.347Z,42.11
2023-02-28T10:52:10.144Z,42.42
2023-02-28T10:54:21.632Z,43.93
2023-02-28T10:56:24.964Z,41.26
2023-02-28T10:58:30.547Z,42.20
2023-02-28T11:00:35.634Z,41.13
2023-02-28T11:02:38.397Z,40.10
2023-02-28T11:04:40.067Z,39.69
2023-02-28T11:06:41.673Z,40.09
2023-02-28T11:08:49.572Z,42.20
2023-02-28T11:10:57.162Z,41.93
2023-02-28T11:13:01.012Z,40.26
2023-02-28T11:15:19.594Z,41.87
2023-02-28T11:17:23.600Z,38.26
2023-02-28T11:19:27.920Z,37.07
2023-02-28T11:21:33.227Z,38.49
2023-02-28T11:23:38.319Z,38.19
2023-02-28T11:25:40.400Z,37.02
2023-02-28T11:27:47.064Z,38.99
2023-02-28T11:29:48.980Z,36.41
2023-02-28T11:32:17.971Z,41.26
2023-02-28T11:34:25.758Z,39.19
2023-02-28T11:36:30.903Z,37.06
2023-02-28T11:38:36.005Z,38.58
2023-02-28T11:40:44.599Z,38.73
2023-02-28T11:42:56.157Z,39.09
2023-02-28T11:45:10.835Z,40.63
2023-02-28T11:47:20.416Z,40.04
2023-02-28T11:49:33.433Z,40.48
2023-02-28T11:51:36.609Z,36.91
2023-02-28T11:53:56.504Z,41.37
2023-02-28T11:56:07.272Z,39.37
2023-02-28T11:58:40.090Z,41.39
2023-02-28T12:00:58.561Z,38.69
2023-02-28T12:03:13.391Z,39.49
2023-02-28T12:05:30.428Z,39.11
2023-02-28T12:07:42.186Z,38.19
2023-02-28T12:09:54.602Z,37.24
2023-02-28T12:12:01.228Z,35.37
2023-02-28T12:14:24.302Z,37.77
2023-02-28T12:16:50.642Z,40.19
2023-02-28T12:19:07.785Z,39.90
2023-02-28T12:21:19.632Z,38.66
2023-02-28T12:23:45.265Z,38.42
2023-02-28T12:26:09.548Z,40.14
2023-02-28T12:28:15.695Z,37.16
2023-02-28T12:30:22.414Z,36.75
2023-02-28T12:32:28.579Z,36.89
2023-02-28T12:34:36.400Z,37.06
2023-02-28T12:36:40.201Z,36.54
2023-02-28T12:38:46.588Z,36.51
2023-02-28T12:40:52.635Z,35.36
2023-02-28T12:42:59.779Z,36.30
2023-02-28T12:45:06.651Z,35.92
2023-02-28T12:47:15.293Z,37.14
2023-02-28T12:49:22.688Z,35.27
2023-02-28T12:51:28.023Z,36.42
2023-02-28T12:53:45.044Z,38.27
2023-02-28T12:55:54.509Z,36.51
2023-02-28T12:58:02.934Z,36.79
2023-02-28T13:00:12.087Z,34.96
2023-02-28T13:02:43.756Z,39.83
2023-02-28T13:04:58.939Z,37.10
2023-02-28T13:07:32.665Z,39.83
2023-02-28T13:09:34.679Z,35.72
2023-02-28T13:11:41.660Z,37.34
2023-02-28T13:13:46.273Z,36.66
2023-02-28T13:16:03.756Z,39.40
2023-02-28T13:18:05.649Z,34.47
2023-02-28T13:20:17.285Z,38.32
2023-02-28T13:22:21.638Z,35.51
2023-02-28T13:24:49.375Z,40.18
2023-02-28T13:27:27.413Z,40.36
2023-02-28T13:29:31.307Z,34.77
2023-02-28T13:31:32.877Z,34.98
2023-02-28T13:33:35.542Z,34.90
2023-02-28T13:35:44.371Z,35.66
2023-02-28T13:37:49.392Z,35.95
2023-02-28T13:39:54.367Z,35.64
2023-02-28T13:41:56.058Z,35.47
2023-02-28T13:44:02.970Z,37.02
2023-02-28T13:46:14.293Z,38.78
2023-02-28T13:48:19.853Z,36.31
2023-02-28T13:50:31.456Z,38.72
2023-02-28T13:52:36.362Z,36.44
2023-02-28T13:54:54.230Z,38.56
2023-02-28T13:57:12.791Z,38.57
2023-02-28T13:59:27.814Z,37.61
2023-02-28T14:01:43.633Z,38.51
2023-02-28T14:04:03.418Z,38.47
2023-02-28T14:06:19.417Z,39.19
2023-02-28T14:08:23.390Z,36.38
2023-02-28T14:10:29.618Z,37.58
2023-02-28T14:13:02.208Z,39.91
2023-02-28T14:15:05.154Z,36.08
2023-02-28T14:17:13.455Z,35.34
2023-02-28T14:19:26.790Z,35.99
2023-02-28T14:21:32.070Z,35.75
2023-02-28T14:23:47.789Z,38.42
2023-02-28T14:26:01.332Z,37.79
2023-02-28T14:28:19.965Z,37.45
2023-02-28T14:30:58.500Z,38.84
2023-02-28T14:33:12.305Z,37.05
2023-02-28T14:35:28.805Z,37.57
2023-02-28T14:37:38.322Z,35.54
2023-02-28T14:39:42.501Z,34.88
2023-02-28T14:41:47.623Z,36.28
2023-02-28T14:43:53.490Z,36.95
2023-02-28T14:45:57.213Z,35.53
2023-02-28T14:48:00.333Z,35.27
2023-02-28T14:50:04.195Z,35.54
2023-02-28T14:52:16.644Z,38.09
2023-02-28T14:54:23.664Z,37.75
2023-02-28T14:56:29.246Z,36.04
2023-02-28T14:58:32.910Z,36.14
2023-02-28T15:00:37.990Z,36.41
2023-02-28T15:02:40.779Z,36.59
2023-02-28T15:04:42.602Z,36.76
2023-02-28T15:06:44.526Z,36.72
2023-02-28T15:08:49.213Z,35.82
2023-02-28T15:10:57.284Z,37.06
2023-02-28T15:13:01.150Z,35.80
2023-02-28T15:15:03.495Z,36.48
2023-02-28T15:17:10.391Z,37.49
2023-02-28T15:19:20.034Z,38.69
2023-02-28T15:21:26.193Z,37.21
2023-02-28T15:23:27.993Z,37.21
2023-02-28T15:25:29.635Z,36.83
2023-02-28T15:27:34.052Z,36.62
2023-02-28T15:29:45.158Z,38.92
2023-02-28T15:31:57.442Z,38.06
2023-02-28T15:34:06.160Z,38.40
2023-02-28T15:36:15.009Z,38.91
2023-02-28T15:38:22.564Z,38.32
2023-02-28T15:40:27.934Z,38.23
2023-02-28T15:42:30.443Z,36.69
2023-02-28T15:44:37.650Z,38.70
2023-02-28T15:46:40.988Z,37.57
2023-02-28T15:48:46.534Z,38.68
2023-02-28T15:50:52.534Z,38.24
2023-02-28T15:52:54.259Z,38.01
2023-02-28T15:54:55.989Z,38.36
2023-02-28T15:57:05.210Z,37.75
2023-02-28T15:59:14.660Z,38.11
2023-02-28T16:01:25.102Z,39.24
2023-02-28T16:03:29.010Z,38.28
2023-02-28T16:05:31.885Z,37.90
2023-02-28T16:07:36.172Z,38.27
2023-02-28T16:09:37.678Z,39.29
2023-02-28T16:11:43.141Z,38.85
2023-02-28T16:13:44.746Z,38.88
2023-02-28T16:15:46.928Z,38.64
2023-02-28T16:17:49.838Z,39.10
2023-02-28T16:19:51.664Z,39.28
2023-02-28T16:21:53.286Z,38.96
2023-02-28T16:23:56.306Z,38.67
2023-02-28T16:25:58.009Z,39.50
2023-02-28T16:27:59.674Z,39.81
2023-02-28T16:30:02.224Z,40.16
2023-02-28T16:32:06.557Z,40.32
2023-02-28T16:34:08.183Z,40.10
2023-02-28T16:36:14.314Z,39.88
2023-02-28T16:38:16.255Z,40.55
2023-02-28T16:40:22.365Z,40.26
2023-02-28T16:42:28.146Z,40.94
2023-02-28T16:44:33.180Z,41.25
2023-02-28T16:46:36.657Z,40.77
2023-02-28T16:48:38.289Z,40.91
2023-02-28T16:50:40.304Z,41.84
2023-02-28T16:52:41.931Z,40.89
2023-02-28T16:54:43.666Z,42.29
2023-02-28T16:56:50.278Z,41.89
2023-02-28T16:58:52.418Z,43.52
2023-02-28T17:00:54.060Z,42.34
2023-02-28T17:02:56.762Z,43.01
2023-02-28T17:04:58.492Z,42.79
2023-02-28T17:07:00.090Z,43.29
2023-02-28T17:09:01.697Z,42.50
2023-02-28T17:11:03.352Z,42.25
2023-02-28T17:13:14.390Z,42.02
2023-02-28T17:15:18.831Z,41.66
2023-02-28T17:17:22.764Z,43.13
2023-02-28T17:19:24.323Z,43.69
2023-02-28T17:21:25.896Z,44.39
2023-02-28T17:23:27.797Z,44.23
2023-02-28T17:25:29.540Z,43.47
2023-02-28T17:27:31.045Z,43.80
2023-02-28T17:29:34.269Z,43.58
2023-02-28T17:31:36.140Z,44.33
2023-02-28T17:33:37.783Z,43.91
2023-02-28T17:35:39.543Z,44.29
2023-02-28T17:37:41.517Z,44.18
2023-02-28T17:39:43.144Z,44.12
2023-02-28T17:41:44.693Z,43.85
2023-02-28T17:43:46.341Z,44.40
2023-02-28T17:45:49.633Z,44.46
2023-02-28T17:47:51.432Z,45.56
2023-02-28T17:49:53.326Z,45.98
2023-02-28T17:51:54.902Z,46.78
2023-02-28T17:53:56.651Z,47.25
2023-02-28T17:55:58.212Z,47.72
2023-02-28T17:58:00.618Z,47.59
2023-02-28T18:00:04.327Z,47.90
2023-02-28T18:02:07.776Z,47.57
2023-02-28T18:04:09.925Z,47.40
2023-02-28T18:06:17.933Z,47.77
2023-02-28T18:08:19.679Z,48.20
2023-02-28T18:10:22.055Z,47.19
2023-02-28T18:12:23.699Z,47.71
2023-02-28T18:14:26.032Z,48.50
2023-02-28T18:16:27.644Z,47.75
2023-02-28T18:18:30.805Z,47.71
2023-02-28T18:20:32.374Z,47.92
2023-02-28T18:22:33.979Z,48.11
2023-02-28T18:24:36.042Z,49.18
2023-02-28T18:26:39.220Z,49.98
2023-02-28T18:28:40.871Z,49.88
2023-02-28T18:30:43.025Z,50.25
2023-02-28T18:32:44.587Z,50.44
2023-02-28T18:34:47.524Z,49.22
2023-02-28T18:36:49.856Z,49.50
2023-02-28T18:38:52.093Z,49.33
2023-02-28T18:40:55.618Z,49.38
2023-02-28T18:42:57.255Z,49.78
2023-02-28T18:44:58.764Z,49.71
2023-02-28T18:47:00.597Z,49.14
2023-02-28T18:49:02.260Z,49.69
2023-02-28T18:51:08.887Z,50.03
2023-02-28T18:53:10.708Z,48.53
2023-02-28T18:55:12.512Z,49.54
2023-02-28T18:57:14.302Z,50.03
2023-02-28T18:59:16.106Z,49.74
2023-02-28T19:01:20.112Z,51.03
2023-02-28T19:03:21.641Z,51.03
2023-02-28T19:05:23.870Z,51.66
2023-02-28T19:07:27.687Z,50.75
2023-02-28T19:09:29.308Z,51.26
2023-02-28T19:11:31.653Z,51.11
2023-02-28T19:13:33.396Z,50.20
2023-02-28T19:15:34.926Z,50.97
2023-02-28T19:17:36.991Z,52.18
2023-02-28T19:19:39.018Z,51.73
2023-02-28T19:21:40.528Z,52.17
2023-02-28T19:23:43.728Z,51.13
2023-02-28T19:25:45.313Z,50.94
2023-02-28T19:27:47.285Z,50.47
2023-02-28T19:29:50.008Z,51.96
2023-02-28T19:31:51.636Z,50.99
2023-02-28T19:33:54.276Z,51.57
2023-02-28T19:35:55.960Z,50.98
2023-02-28T19:37:58.923Z,51.54
2023-02-28T19:40:02.544Z,52.00
2023-02-28T19:42:04.564Z,51.86
2023-02-28T19:44:06.319Z,51.77
2023-02-28T19:46:09.242Z,51.74
2023-02-28T19:48:11.093Z,52.10
2023-02-28T19:50:12.640Z,51.62
2023-02-28T19:52:15.550Z,51.92
2023-02-28T19:54:17.590Z,51.96
2023-02-28T19:56:20.689Z,51.55
2023-02-28T19:58:23.059Z,51.98
2023-02-28T20:00:25.405Z,52.45
2023-02-28T20:02:27.106Z,52.72
2023-02-28T20:04:28.630Z,52.07
2023-02-28T20:06:32.293Z,52.87
2023-02-28T20:08:34.594Z,53.47
2023-02-28T20:10:36.943Z,53.98
2023-02-28T20:12:39.988Z,53.51
2023-02-28T20:14:42.005Z,53.34
2023-02-28T20:16:44.282Z,53.06
2023-02-28T20:18:50.456Z,53.01
2023-02-28T20:20:52.272Z,53.16
2023-02-28T20:22:53.918Z,52.93
2023-02-28T20:24:55.947Z,52.74
2023-02-28T20:26:57.480Z,54.06
2023-02-28T20:29:00.603Z,54.03
2023-02-28T20:31:02.847Z,53.74
2023-02-28T20:33:04.892Z,54.25
2023-02-28T20:35:07.818Z,54.26
2023-02-28T20:37:09.428Z,54.26
2023-02-28T20:39:11.217Z,55.29
2023-02-28T20:41:13.998Z,55.12
2023-02-28T20:43:15.615Z,54.88
2023-02-28T20:45:19.146Z,54.54
2023-02-28T20:47:21.011Z,55.01
2023-02-28T20:49:22.614Z,54.87
2023-02-28T20:51:24.609Z,54.57
2023-02-28T20:53:27.643Z,55.45
2023-02-28T20:55:29.225Z,55.30
2023-02-28T20:57:30.975Z,55.23
2023-02-28T20:59:32.585Z,55.76
2023-02-28T21:01:35.780Z,55.24
2023-02-28T21:03:37.812Z,55.19
2023-02-28T21:05:39.650Z,55.24
2023-02-28T21:07:41.203Z,55.10
2023-02-28T21:09:42.832Z,55.85
2023-02-28T21:11:44.451Z,55.17
2023-02-28T21:13:47.460Z,55.73
2023-02-28T21:15:49.331Z,55.89
2023-02-28T21:17:52.536Z,55.06
2023-02-28T21:19:54.143Z,55.67
2023-02-28T21:21:55.980Z,56.13
2023-02-28T21:23:57.670Z,56.78
2023-02-28T21:26:02.711Z,56.93
2023-02-28T21:28:04.341Z,56.88
2023-02-28T21:30:07.389Z,57.43
2023-02-28T21:32:08.925Z,57.50
2023-02-28T21:34:13.335Z,57.42
2023-02-28T21:36:18.265Z,57.28
2023-02-28T21:38:19.830Z,57.54
2023-02-28T21:40:21.469Z,57.16
2023-02-28T21:42:23.137Z,57.47
2023-02-28T21:44:24.696Z,56.64
2023-02-28T21:46:29.630Z,57.17
2023-02-28T21:48:32.193Z,56.93
2023-02-28T21:50:35.305Z,56.42
2023-02-28T21:52:36.933Z,56.76
2023-02-28T21:54:38.448Z,56.49
2023-02-28T21:56:40.830Z,56.60
2023-02-28T21:58:42.764Z,56.69
2023-02-28T22:00:44.742Z,57.16
2023-02-28T22:02:46.622Z,57.24
2023-02-28T22:04:48.309Z,56.63
2023-02-28T22:06:53.209Z,57.29
2023-02-28T22:08:56.848Z,57.12
2023-02-28T22:11:02.520Z,56.73
2023-02-28T22:13:04.444Z,57.03
2023-02-28T22:15:07.534Z,57.55
2023-02-28T22:17:09.484Z,57.35
2023-02-28T22:19:11.373Z,57.89
2023-02-28T22:21:14.845Z,57.65
2023-02-28T22:23:17.771Z,58.26
2023-02-28T22:25:19.479Z,58.01
2023-02-28T22:27:21.711Z,58.91
2023-02-28T22:29:23.318Z,57.97
2023-02-28T22:31:27.814Z,58.61
2023-02-28T22:33:29.454Z,58.04
2023-02-28T22:35:31.037Z,58.29
2023-02-28T22:37:32.761Z,58.21
2023-02-28T22:39:35.840Z,58.60
2023-02-28T22:41:37.974Z,58.46
2023-02-28T22:43:40.240Z,58.82
2023-02-28T22:45:41.838Z,58.86
2023-02-28T22:47:43.366Z,58.30
2023-02-28T22:49:45.124Z,58.67
2023-02-28T22:51:46.777Z,59.28
2023-02-28T22:53:50.174Z,58.83
2023-02-28T22:55:56.087Z,58.62
2023-02-28T22:57:57.622Z,58.70
2023-02-28T22:59:59.219Z,58.82
2023-02-28T23:02:01.020Z,58.81
2023-02-28T23:04:02.894Z,58.82
2023-02-28T23:06:12.625Z,58.49
2023-02-28T23:08:14.287Z,59.44
2023-02-28T23:10:18.756Z,59.17
2023-02-28T23:12:21.687Z,59.30
2023-02-28T23:14:23.593Z,59.77
2023-02-28T23:16:31.306Z,59.07
2023-02-28T23:18:33.552Z,59.44
2023-02-28T23:20:35.159Z,59.40
2023-02-28T23:22:36.716Z,59.97
2023-02-28T23:24:38.638Z,59.61
2023-02-28T23:26:43.034Z,60.19
2023-02-28T23:28:46.086Z,59.86
2023-02-28T23:30:47.685Z,60.56
2023-02-28T23:32:49.297Z,60.33
2023-02-28T23:34:50.945Z,60.38
2023-02-28T23:36:53.847Z,61.51
2023-02-28T23:38:55.411Z,61.19
2023-02-28T23:40:57.226Z,61.08
2023-02-28T23:42:59.353Z,61.34
2023-02-28T23:45:02.850Z,61.08
2023-02-28T23:47:04.472Z,61.48
2023-02-28T23:49:06.309Z,61.75
2023-02-28T23:51:10.516Z,61.83
2023-02-28T23:53:12.379Z,61.45
2023-02-28T23:55:14.255Z,62.20
2023-02-28T23:57:15.876Z,61.45
2023-02-28T23:59:17.477Z,61.90
